createdAt,value
2018-12-09T00:00:16.597Z,976.37
2018-12-09T00:01:16.572Z,976.38
2018-12-09T00:02:16.548Z,976.60
2018-12-09T00:03:16.569Z,976.46
2018-12-09T00:04:16.549Z,976.46
2018-12-09T00:05:16.484Z,976.31
2018-12-09T00:06:16.484Z,976.49
2018-12-09T00:07:16.467Z,976.51
2018-12-09T00:08:16.428Z,976.44
2018-12-09T00:09:16.563Z,976.27
2018-12-09T00:10:16.410Z,976.56
2018-12-09T00:11:16.394Z,976.55
2018-12-09T00:12:16.438Z,976.60
2018-12-09T00:13:16.361Z,976.57
2018-12-09T00:14:16.333Z,976.62
2018-12-09T00:15:16.340Z,976.39
2018-12-09T00:16:16.325Z,976.54
2018-12-09T00:17:16.276Z,976.58
2018-12-09T00:18:16.263Z,976.45
2018-12-09T00:19:16.271Z,976.52
2018-12-09T00:20:16.277Z,976.65
2018-12-09T00:21:16.197Z,976.45
2018-12-09T00:22:16.178Z,976.58
2018-12-09T00:23:16.157Z,976.58
2018-12-09T00:24:16.145Z,976.67
2018-12-09T00:25:16.126Z,976.64
2018-12-09T00:26:16.148Z,976.64
2018-12-09T00:27:16.084Z,976.65
2018-12-09T00:28:16.077Z,976.67
2018-12-09T00:29:16.064Z,976.61
2018-12-09T00:30:16.181Z,976.49
2018-12-09T00:31:16.011Z,976.51
2018-12-09T00:32:16.006Z,976.50
2018-12-09T00:33:15.982Z,976.63
2018-12-09T00:34:15.966Z,976.53
2018-12-09T00:35:15.947Z,976.49
2018-12-09T00:36:15.954Z,976.51
2018-12-09T00:37:15.908Z,976.47
2018-12-09T00:38:15.887Z,976.45
2018-12-09T00:39:15.876Z,976.51
2018-12-09T00:40:15.850Z,976.46
2018-12-09T00:41:15.862Z,976.39
2018-12-09T00:42:15.809Z,976.47
2018-12-09T00:43:15.817Z,976.48
2018-12-09T00:44:15.770Z,976.42
2018-12-09T00:45:15.751Z,976.34
2018-12-09T00:46:15.777Z,976.50
2018-12-09T00:47:15.718Z,976.29
2018-12-09T00:48:15.702Z,976.40
2018-12-09T00:49:15.696Z,976.36
2018-12-09T00:50:15.669Z,976.28
2018-12-09T00:51:15.651Z,976.43
2018-12-09T00:52:15.708Z,976.44
2018-12-09T00:53:15.609Z,976.39
2018-12-09T00:54:15.594Z,976.35
2018-12-09T00:55:15.582Z,976.19
2018-12-09T00:56:15.569Z,976.47
2018-12-09T00:57:15.545Z,976.39
2018-12-09T00:58:15.560Z,976.40
2018-12-09T00:59:15.506Z,976.34
2018-12-09T01:00:15.518Z,976.42
2018-12-09T01:01:15.469Z,976.38
2018-12-09T01:02:15.447Z,976.27
2018-12-09T01:03:15.452Z,976.40
2018-12-09T01:04:15.445Z,976.32
2018-12-09T01:05:15.388Z,976.25
2018-12-09T01:06:15.381Z,976.25
2018-12-09T01:07:15.352Z,976.25
2018-12-09T01:08:15.348Z,976.23
2018-12-09T01:09:15.476Z,976.17
2018-12-09T01:10:15.297Z,976.27
2018-12-09T01:11:15.274Z,976.27
2018-12-09T01:12:15.277Z,976.16
2018-12-09T01:13:15.242Z,976.21
2018-12-09T01:14:15.237Z,976.14
2018-12-09T01:15:15.232Z,976.34
2018-12-09T01:16:15.185Z,976.27
2018-12-09T01:17:15.168Z,976.43
2018-12-09T01:18:15.157Z,976.33
2018-12-09T01:19:15.129Z,976.31
2018-12-09T01:20:15.158Z,976.33
2018-12-09T01:21:15.108Z,976.35
2018-12-09T01:22:15.073Z,976.38
2018-12-09T01:23:15.071Z,976.34
2018-12-09T01:24:15.050Z,976.34
2018-12-09T01:25:15.060Z,976.37
2018-12-09T01:26:15.012Z,976.40
2018-12-09T01:27:14.984Z,976.41
2018-12-09T01:28:14.967Z,976.57
2018-12-09T01:29:14.958Z,976.30
2018-12-09T01:30:15.007Z,976.46
2018-12-09T01:31:15.024Z,976.41
2018-12-09T01:32:14.899Z,976.68
2018-12-09T01:33:14.870Z,976.21
2018-12-09T01:34:14.867Z,976.43
2018-12-09T01:35:14.840Z,976.35
2018-12-09T01:36:14.829Z,976.39
2018-12-09T01:37:14.831Z,976.38
2018-12-09T01:39:46.666Z,976.45
2018-12-09T01:40:46.610Z,976.52
2018-12-09T01:41:46.588Z,976.38
2018-12-09T01:42:46.569Z,976.36
2018-12-09T01:43:46.542Z,976.39
2018-12-09T01:44:46.540Z,976.41
2018-12-09T01:45:46.521Z,976.39
2018-12-09T01:46:46.554Z,976.33
2018-12-09T01:47:46.477Z,976.45
2018-12-09T01:48:46.465Z,976.31
2018-12-09T01:49:46.448Z,976.53
2018-12-09T01:50:46.428Z,976.44
2018-12-09T01:51:46.403Z,976.44
2018-12-09T01:52:46.418Z,976.41
2018-12-09T01:53:46.356Z,976.46
2018-12-09T01:54:46.345Z,976.28
2018-12-09T01:55:46.330Z,976.42
2018-12-09T01:56:46.319Z,976.43
2018-12-09T01:57:46.364Z,976.59
2018-12-09T01:58:46.277Z,976.41
2018-12-09T01:59:46.247Z,976.56
2018-12-09T02:00:47.012Z,976.78
2018-12-09T02:01:46.219Z,976.66
2018-12-09T02:02:46.198Z,976.69
2018-12-09T02:03:46.247Z,976.68
2018-12-09T02:04:46.166Z,976.71
2018-12-09T02:05:46.135Z,976.70
2018-12-09T02:06:46.124Z,976.66
2018-12-09T02:07:46.117Z,976.65
2018-12-09T02:08:46.086Z,976.85
2018-12-09T02:09:46.077Z,976.74
2018-12-09T02:10:46.053Z,976.88
2018-12-09T02:11:46.028Z,976.61
2018-12-09T02:12:46.013Z,976.59
2018-12-09T02:13:46.006Z,976.70
2018-12-09T02:14:45.999Z,976.74
2018-12-09T02:15:45.966Z,976.84
2018-12-09T02:16:45.938Z,976.80
2018-12-09T02:17:45.932Z,976.88
2018-12-09T02:18:45.913Z,976.98
2018-12-09T02:19:45.911Z,976.75
2018-12-09T02:20:45.870Z,976.78
2018-12-09T02:21:45.846Z,976.91
2018-12-09T02:22:45.840Z,977.12
2018-12-09T02:23:45.817Z,976.81
2018-12-09T02:24:45.783Z,977.14
2018-12-09T02:25:45.812Z,977.08
2018-12-09T02:26:45.791Z,977.01
2018-12-09T02:27:45.735Z,977.01
2018-12-09T02:28:45.713Z,976.94
2018-12-09T02:29:45.704Z,977.01
2018-12-09T02:30:45.688Z,977.05
2018-12-09T02:31:45.674Z,976.89
2018-12-09T02:32:45.677Z,976.88
2018-12-09T02:33:45.636Z,977.03
2018-12-09T02:34:45.615Z,976.92
2018-12-09T02:35:45.591Z,977.12
2018-12-09T02:36:45.576Z,977.07
2018-12-09T02:37:45.558Z,976.99
2018-12-09T02:38:45.540Z,977.18
2018-12-09T02:39:45.519Z,977.12
2018-12-09T02:40:45.494Z,977.22
2018-12-09T02:41:45.508Z,976.78
2018-12-09T02:42:45.471Z,977.07
2018-12-09T02:43:45.433Z,977.12
2018-12-09T02:44:45.426Z,977.14
2018-12-09T02:45:45.415Z,977.16
2018-12-09T02:46:45.434Z,977.11
2018-12-09T02:47:45.372Z,977.14
2018-12-09T02:48:45.351Z,977.12
2018-12-09T02:49:45.329Z,977.08
2018-12-09T02:50:45.308Z,977.19
2018-12-09T02:51:45.334Z,977.14
2018-12-09T02:52:45.280Z,977.14
2018-12-09T02:53:45.260Z,977.26
2018-12-09T02:54:45.239Z,977.12
2018-12-09T02:55:45.220Z,977.06
2018-12-09T02:56:45.336Z,977.16
2018-12-09T02:57:45.177Z,977.20
2018-12-09T02:58:45.154Z,977.19
2018-12-09T02:59:45.141Z,977.09
2018-12-09T03:00:45.131Z,977.21
2018-12-09T03:01:45.106Z,977.10
2018-12-09T03:02:45.113Z,977.24
2018-12-09T03:03:45.073Z,977.09
2018-12-09T03:04:45.043Z,977.15
2018-12-09T03:05:45.035Z,977.13
2018-12-09T03:06:45.021Z,977.15
2018-12-09T03:07:45.051Z,977.19
2018-12-09T03:08:44.971Z,977.00
2018-12-09T03:09:44.960Z,976.99
2018-12-09T03:10:44.944Z,976.99
2018-12-09T03:11:44.922Z,977.06
2018-12-09T03:12:44.907Z,977.05
2018-12-09T03:13:45.044Z,977.01
2018-12-09T03:14:44.871Z,977.00
2018-12-09T03:15:44.861Z,977.08
2018-12-09T03:16:44.836Z,977.10
2018-12-09T03:17:44.817Z,977.07
2018-12-09T03:18:44.792Z,977.10
2018-12-09T03:19:44.781Z,977.11
2018-12-09T03:20:44.761Z,977.09
2018-12-09T03:21:44.742Z,977.12
2018-12-09T03:22:44.752Z,977.02
2018-12-09T03:23:44.773Z,977.11
2018-12-09T03:24:44.699Z,977.17
2018-12-09T03:25:44.656Z,977.13
2018-12-09T03:26:44.636Z,977.00
2018-12-09T03:27:44.623Z,977.10
2018-12-09T03:28:44.602Z,977.21
2018-12-09T03:29:44.616Z,977.08
2018-12-09T03:30:44.577Z,977.21
2018-12-09T03:31:44.559Z,977.15
2018-12-09T03:32:44.682Z,977.06
2018-12-09T03:33:44.506Z,977.29
2018-12-09T03:34:44.558Z,977.13
2018-12-09T03:35:44.480Z,976.92
2018-12-09T03:36:44.458Z,977.05
2018-12-09T03:37:44.437Z,977.01
2018-12-09T03:38:44.426Z,977.09
2018-12-09T03:39:44.394Z,977.12
2018-12-09T03:40:44.411Z,976.94
2018-12-09T03:41:44.512Z,977.11
2018-12-09T03:42:44.348Z,977.08
2018-12-09T03:43:44.334Z,977.03
2018-12-09T03:44:44.316Z,977.15
2018-12-09T03:45:44.284Z,977.11
2018-12-09T03:46:44.266Z,977.08
2018-12-09T03:47:44.283Z,977.15
2018-12-09T03:48:44.229Z,977.10
2018-12-09T03:49:44.217Z,977.05
2018-12-09T03:50:44.198Z,976.96
2018-12-09T03:51:44.324Z,977.11
2018-12-09T03:52:44.165Z,977.17
2018-12-09T03:53:44.137Z,977.18
2018-12-09T03:54:44.124Z,977.15
2018-12-09T03:55:44.103Z,977.33
2018-12-09T03:56:44.085Z,977.12
2018-12-09T03:57:44.094Z,977.22
2018-12-09T03:58:44.060Z,977.20
2018-12-09T03:59:44.034Z,977.24
2018-12-09T04:00:44.024Z,977.32
2018-12-09T04:01:44.000Z,977.14
2018-12-09T04:02:44.009Z,977.33
2018-12-09T04:03:43.970Z,977.26
2018-12-09T04:04:43.936Z,977.32
2018-12-09T04:05:43.923Z,977.23
2018-12-09T04:06:43.908Z,977.46
2018-12-09T04:07:43.961Z,977.07
2018-12-09T04:08:43.873Z,977.28
2018-12-09T04:09:43.850Z,977.24
2018-12-09T04:10:43.835Z,977.23
2018-12-09T04:11:43.805Z,977.23
2018-12-09T04:12:43.799Z,977.25
2018-12-09T04:13:43.900Z,977.38
2018-12-09T04:14:43.760Z,977.31
2018-12-09T04:15:43.732Z,977.24
2018-12-09T04:16:43.718Z,977.29
2018-12-09T04:17:43.707Z,977.45
2018-12-09T04:18:43.682Z,977.26
2018-12-09T04:19:43.705Z,977.13
2018-12-09T04:20:43.674Z,977.20
2018-12-09T04:21:43.621Z,977.35
2018-12-09T04:22:43.615Z,977.31
2018-12-09T04:23:43.589Z,977.29
2018-12-09T04:24:43.569Z,977.34
2018-12-09T04:25:43.564Z,977.29
2018-12-09T04:26:43.572Z,977.33
2018-12-09T04:27:43.521Z,977.36
2018-12-09T04:28:43.510Z,977.33
2018-12-09T04:29:43.505Z,977.45
2018-12-09T04:30:43.474Z,977.38
2018-12-09T04:31:43.453Z,977.35
2018-12-09T04:32:43.419Z,977.31
2018-12-09T04:33:43.402Z,977.37
2018-12-09T04:34:43.412Z,977.42
2018-12-09T04:35:43.381Z,977.34
2018-12-09T04:36:43.355Z,977.31
2018-12-09T04:37:43.331Z,977.45
2018-12-09T04:38:43.308Z,977.38
2018-12-09T04:39:43.291Z,977.42
2018-12-09T04:40:43.320Z,977.42
2018-12-09T04:41:43.256Z,977.25
2018-12-09T04:42:43.233Z,977.42
2018-12-09T04:43:43.229Z,977.38
2018-12-09T04:44:43.212Z,977.23
2018-12-09T04:45:43.198Z,977.41
2018-12-09T04:46:43.174Z,977.34
2018-12-09T04:47:43.148Z,977.54
2018-12-09T04:48:43.134Z,977.45
2018-12-09T04:49:43.126Z,977.45
2018-12-09T04:50:43.296Z,977.46
2018-12-09T04:51:43.070Z,977.44
2018-12-09T04:52:43.049Z,977.45
2018-12-09T04:53:43.044Z,977.45
2018-12-09T04:54:43.025Z,977.47
2018-12-09T04:55:43.017Z,977.44
2018-12-09T04:56:43.069Z,977.41
2018-12-09T04:57:42.965Z,977.33
2018-12-09T04:58:42.944Z,977.46
2018-12-09T04:59:42.927Z,977.47
2018-12-09T05:00:42.907Z,977.47
2018-12-09T05:01:44.607Z,977.44
2018-12-09T05:02:43.011Z,977.43
2018-12-09T05:03:42.915Z,977.32
2018-12-09T05:04:42.844Z,977.41
2018-12-09T05:05:42.825Z,977.57
2018-12-09T05:06:42.799Z,977.54
2018-12-09T05:07:42.791Z,977.69
2018-12-09T05:08:42.756Z,977.54
2018-12-09T05:09:42.747Z,977.65
2018-12-09T05:10:42.728Z,977.53
2018-12-09T05:11:42.719Z,977.61
2018-12-09T05:12:42.695Z,977.57
2018-12-09T05:13:42.696Z,977.74
2018-12-09T05:14:42.788Z,977.64
2018-12-09T05:15:42.632Z,977.71
2018-12-09T05:16:42.622Z,977.79
2018-12-09T05:17:42.599Z,977.70
2018-12-09T05:18:42.570Z,977.88
2018-12-09T05:19:42.594Z,977.83
2018-12-09T05:20:42.536Z,977.77
2018-12-09T05:21:42.522Z,977.85
2018-12-09T05:22:42.509Z,977.93
2018-12-09T05:23:42.490Z,977.88
2018-12-09T05:24:42.498Z,977.95
2018-12-09T05:25:42.450Z,977.97
2018-12-09T05:26:42.433Z,977.98
2018-12-09T05:27:42.408Z,977.91
2018-12-09T05:28:42.408Z,977.92
2018-12-09T05:29:42.397Z,977.96
2018-12-09T05:30:42.395Z,978.08
2018-12-09T05:31:42.388Z,978.01
2018-12-09T05:32:42.322Z,978.05
2018-12-09T05:33:42.527Z,977.98
2018-12-09T05:34:42.277Z,978.05
2018-12-09T05:35:42.274Z,977.79
2018-12-09T05:36:42.242Z,978.02
2018-12-09T05:37:42.237Z,977.98
2018-12-09T05:38:42.220Z,977.98
2018-12-09T05:39:42.193Z,978.13
2018-12-09T05:40:42.181Z,977.94
2018-12-09T05:41:42.150Z,977.98
2018-12-09T05:42:42.135Z,977.87
2018-12-09T05:43:42.179Z,977.92
2018-12-09T05:44:42.092Z,977.92
2018-12-09T05:45:42.075Z,977.86
2018-12-09T05:46:42.072Z,977.89
2018-12-09T05:47:42.049Z,977.97
2018-12-09T05:48:42.033Z,978.03
2018-12-09T05:49:42.027Z,977.97
2018-12-09T05:50:41.985Z,978.09
2018-12-09T05:51:41.966Z,978.03
2018-12-09T05:52:41.960Z,978.03
2018-12-09T05:53:41.970Z,978.19
2018-12-09T05:54:41.952Z,978.25
2018-12-09T05:55:41.897Z,978.23
2018-12-09T05:56:41.880Z,978.26
2018-12-09T05:57:41.860Z,978.26
2018-12-09T05:58:41.840Z,978.26
2018-12-09T05:59:41.847Z,978.06
2018-12-09T06:00:41.805Z,978.27
2018-12-09T06:01:41.775Z,977.93
2018-12-09T06:02:41.766Z,978.29
2018-12-09T06:03:41.756Z,978.39
2018-12-09T06:04:41.751Z,978.45
2018-12-09T06:05:41.701Z,978.44
2018-12-09T06:06:41.736Z,978.51
2018-12-09T06:07:41.675Z,978.46
2018-12-09T06:08:41.648Z,978.65
2018-12-09T06:09:41.633Z,978.56
2018-12-09T06:10:41.612Z,978.49
2018-12-09T06:11:41.590Z,978.49
2018-12-09T06:12:41.596Z,978.51
2018-12-09T06:13:41.554Z,978.47
2018-12-09T06:14:41.575Z,978.46
2018-12-09T06:15:41.519Z,978.51
2018-12-09T06:16:41.516Z,978.49
2018-12-09T06:17:41.498Z,978.44
2018-12-09T06:18:41.473Z,978.51
2018-12-09T06:19:41.473Z,978.37
2018-12-09T06:20:41.436Z,978.46
2018-12-09T06:21:41.409Z,978.51
2018-12-09T06:22:41.401Z,978.52
2018-12-09T06:23:41.380Z,978.23
2018-12-09T06:24:41.505Z,978.44
2018-12-09T06:25:41.340Z,978.48
2018-12-09T06:26:41.333Z,978.50
2018-12-09T06:27:41.308Z,978.40
2018-12-09T06:28:41.279Z,978.37
2018-12-09T06:29:41.257Z,978.46
2018-12-09T06:30:41.249Z,978.35
2018-12-09T06:31:41.227Z,978.52
2018-12-09T06:32:41.214Z,978.36
2018-12-09T06:33:41.190Z,978.58
2018-12-09T06:34:41.177Z,978.67
2018-12-09T06:35:41.263Z,978.50
2018-12-09T06:36:41.128Z,978.51
2018-12-09T06:37:41.120Z,978.54
2018-12-09T06:38:41.102Z,978.57
2018-12-09T06:39:41.092Z,978.49
2018-12-09T06:40:41.090Z,978.63
2018-12-09T06:41:41.032Z,978.53
2018-12-09T06:42:41.017Z,978.61
2018-12-09T06:43:41.005Z,978.69
2018-12-09T06:44:40.986Z,978.58
2018-12-09T06:45:40.958Z,978.62
2018-12-09T06:46:41.011Z,978.67
2018-12-09T06:47:40.921Z,978.69
2018-12-09T06:48:40.909Z,978.76
2018-12-09T06:49:40.897Z,978.69
2018-12-09T06:50:40.879Z,978.69
2018-12-09T06:51:40.851Z,978.73
2018-12-09T06:52:40.850Z,978.71
2018-12-09T06:53:40.816Z,978.73
2018-12-09T06:54:40.800Z,978.67
2018-12-09T06:55:40.934Z,978.76
2018-12-09T06:56:40.756Z,978.65
2018-12-09T06:57:40.748Z,978.83
2018-12-09T06:58:40.735Z,978.82
2018-12-09T06:59:40.700Z,978.76
2018-12-09T07:00:40.685Z,978.68
2018-12-09T07:01:40.812Z,978.65
2018-12-09T07:02:40.661Z,978.65
2018-12-09T07:03:40.633Z,978.66
2018-12-09T07:04:40.616Z,978.63
2018-12-09T07:05:40.590Z,978.62
2018-12-09T07:06:40.568Z,978.70
2018-12-09T07:07:40.560Z,978.66
2018-12-09T07:08:40.540Z,978.72
2018-12-09T07:09:40.533Z,978.75
2018-12-09T07:10:40.505Z,978.75
2018-12-09T07:11:40.479Z,978.68
2018-12-09T07:12:40.477Z,978.77
2018-12-09T07:13:40.442Z,978.61
2018-12-09T07:14:40.453Z,978.87
2018-12-09T07:15:40.439Z,978.71
2018-12-09T07:16:40.396Z,978.76
2018-12-09T07:17:40.380Z,978.78
2018-12-09T07:18:40.352Z,978.81
2018-12-09T07:19:40.335Z,978.84
2018-12-09T07:20:40.327Z,978.77
2018-12-09T07:21:40.294Z,978.82
2018-12-09T07:22:40.282Z,978.78
2018-12-09T07:23:40.271Z,978.64
2018-12-09T07:24:40.274Z,978.81
2018-12-09T07:25:40.223Z,978.90
2018-12-09T07:26:40.217Z,979.08
2018-12-09T07:27:40.212Z,979.36
2018-12-09T07:28:40.183Z,979.28
2018-12-09T07:29:40.152Z,979.23
2018-12-09T07:30:40.177Z,979.24
2018-12-09T07:31:40.117Z,979.32
2018-12-09T07:32:40.091Z,979.42
2018-12-09T07:33:40.119Z,979.40
2018-12-09T07:34:40.101Z,979.33
2018-12-09T07:35:40.049Z,979.46
2018-12-09T07:36:40.019Z,979.43
2018-12-09T07:37:40.001Z,979.43
2018-12-09T07:38:40.018Z,979.38
2018-12-09T07:39:39.966Z,979.36
2018-12-09T07:40:40.012Z,979.46
2018-12-09T07:41:39.945Z,979.36
2018-12-09T07:42:39.912Z,979.37
2018-12-09T07:43:39.899Z,979.33
2018-12-09T07:44:39.877Z,979.38
2018-12-09T07:45:39.854Z,979.36
2018-12-09T07:46:39.902Z,979.33
2018-12-09T07:47:39.811Z,979.36
2018-12-09T07:48:39.805Z,979.37
2018-12-09T07:49:39.790Z,979.37
2018-12-09T07:50:39.766Z,979.37
2018-12-09T07:51:39.741Z,979.36
2018-12-09T07:52:39.735Z,979.36
2018-12-09T07:53:39.699Z,979.37
2018-12-09T07:54:39.680Z,979.36
2018-12-09T07:55:39.673Z,979.43
2018-12-09T07:56:39.644Z,979.46
2018-12-09T07:57:39.773Z,979.58
2018-12-09T07:58:39.618Z,979.63
2018-12-09T07:59:39.602Z,979.86
2018-12-09T08:00:39.581Z,980.10
2018-12-09T08:01:39.555Z,980.25
2018-12-09T08:02:39.538Z,980.23
2018-12-09T08:03:39.602Z,980.19
2018-12-09T08:04:39.506Z,980.26
2018-12-09T08:05:39.479Z,980.20
2018-12-09T08:06:39.465Z,980.21
2018-12-09T08:07:39.446Z,980.19
2018-12-09T08:08:39.420Z,980.23
2018-12-09T08:09:39.421Z,980.30
2018-12-09T08:10:39.395Z,980.26
2018-12-09T08:11:39.380Z,980.32
2018-12-09T08:12:39.360Z,980.28
2018-12-09T08:13:39.334Z,980.38
2018-12-09T08:14:39.315Z,980.30
2018-12-09T08:15:39.290Z,980.44
2018-12-09T08:16:39.284Z,980.33
2018-12-09T08:17:39.250Z,980.45
2018-12-09T08:18:39.231Z,980.47
2018-12-09T08:19:39.252Z,980.55
2018-12-09T08:20:39.193Z,980.52
2018-12-09T08:21:39.180Z,980.54
2018-12-09T08:22:39.195Z,980.58
2018-12-09T08:23:39.145Z,980.66
2018-12-09T08:24:39.129Z,980.58
2018-12-09T08:25:39.101Z,980.67
2018-12-09T08:26:39.083Z,980.67
2018-12-09T08:27:39.098Z,980.69
2018-12-09T08:28:39.049Z,980.74
2018-12-09T08:29:39.034Z,980.62
2018-12-09T08:30:39.028Z,980.75
2018-12-09T08:31:38.994Z,980.79
2018-12-09T08:32:38.970Z,980.80
2018-12-09T08:33:38.984Z,980.67
2018-12-09T08:34:38.930Z,980.75
2018-12-09T08:35:38.967Z,980.69
2018-12-09T08:36:38.887Z,980.77
2018-12-09T08:37:38.882Z,980.79
2018-12-09T08:38:38.850Z,980.80
2018-12-09T08:39:38.835Z,980.78
2018-12-09T08:40:38.825Z,980.80
2018-12-09T08:41:38.815Z,980.81
2018-12-09T08:42:38.790Z,980.84
2018-12-09T08:43:38.771Z,980.86
2018-12-09T08:44:38.743Z,980.84
2018-12-09T08:45:38.750Z,980.97
2018-12-09T08:46:38.708Z,981.00
2018-12-09T08:47:38.707Z,981.07
2018-12-09T08:48:38.675Z,981.10
2018-12-09T08:49:38.661Z,981.03
2018-12-09T08:50:38.641Z,981.14
2018-12-09T08:51:38.621Z,981.11
2018-12-09T08:52:38.630Z,981.18
2018-12-09T08:53:38.595Z,981.14
2018-12-09T08:54:38.557Z,981.21
2018-12-09T08:55:38.544Z,981.18
2018-12-09T08:56:38.520Z,981.23
2018-12-09T08:57:38.499Z,981.28
2018-12-09T08:58:38.476Z,981.24
2018-12-09T08:59:38.469Z,981.14
2018-12-09T09:00:38.449Z,981.23
2018-12-09T09:01:38.497Z,981.26
2018-12-09T09:02:38.403Z,981.23
2018-12-09T09:03:38.390Z,981.26
2018-12-09T09:04:38.375Z,981.18
2018-12-09T09:05:38.347Z,981.33
2018-12-09T09:06:38.335Z,981.37
2018-12-09T09:07:38.426Z,981.33
2018-12-09T09:08:38.301Z,981.36
2018-12-09T09:09:38.283Z,981.37
2018-12-09T09:10:38.278Z,981.39
2018-12-09T09:11:38.239Z,981.46
2018-12-09T09:12:38.217Z,981.45
2018-12-09T09:13:38.197Z,981.44
2018-12-09T09:14:38.186Z,981.45
2018-12-09T09:15:38.174Z,981.55
2018-12-09T09:16:38.140Z,981.52
2018-12-09T09:17:38.133Z,981.58
2018-12-09T09:18:38.161Z,981.57
2018-12-09T09:19:38.097Z,981.61
2018-12-09T09:20:38.071Z,981.57
2018-12-09T09:21:38.043Z,981.65
2018-12-09T09:22:38.039Z,981.64
2018-12-09T09:23:38.012Z,981.67
2018-12-09T09:24:38.134Z,981.65
2018-12-09T09:25:37.980Z,981.68
2018-12-09T09:26:37.954Z,981.69
2018-12-09T09:27:37.947Z,981.71
2018-12-09T09:28:37.933Z,981.67
2018-12-09T09:29:37.906Z,981.67
2018-12-09T09:30:38.010Z,981.66
2018-12-09T09:31:37.866Z,981.70
2018-12-09T09:32:37.844Z,981.71
2018-12-09T09:33:37.830Z,981.80
2018-12-09T09:34:37.812Z,981.76
2018-12-09T09:35:37.796Z,981.85
2018-12-09T09:36:38.230Z,981.76
2018-12-09T09:37:38.362Z,981.88
2018-12-09T09:38:37.854Z,981.83
2018-12-09T09:39:37.710Z,981.83
2018-12-09T09:40:37.704Z,981.80
2018-12-09T09:41:37.776Z,981.83
2018-12-09T09:42:38.360Z,981.90
2018-12-09T09:43:37.643Z,981.87
2018-12-09T09:44:37.659Z,981.90
2018-12-09T09:45:37.611Z,981.90
2018-12-09T09:46:37.578Z,981.84
2018-12-09T09:47:37.571Z,981.84
2018-12-09T09:48:37.541Z,981.97
2018-12-09T09:49:37.600Z,981.94
2018-12-09T09:50:37.551Z,981.95
2018-12-09T09:51:37.901Z,981.98
2018-12-09T09:52:37.622Z,982.00
2018-12-09T09:53:37.454Z,982.09
2018-12-09T09:54:37.427Z,982.09
2018-12-09T09:55:37.908Z,981.91
2018-12-09T09:56:38.033Z,982.06
2018-12-09T09:57:37.514Z,982.04
2018-12-09T09:58:37.370Z,982.12
2018-12-09T09:59:37.424Z,982.07
2018-12-09T10:00:37.322Z,982.08
2018-12-09T10:01:37.304Z,982.15
2018-12-09T10:02:37.299Z,982.14
2018-12-09T10:03:37.273Z,982.18
2018-12-09T10:04:37.267Z,982.05
2018-12-09T10:05:37.286Z,982.25
2018-12-09T10:06:37.226Z,982.09
2018-12-09T10:07:37.190Z,982.02
2018-12-09T10:08:37.600Z,982.20
2018-12-09T10:09:37.233Z,982.22
2018-12-09T10:10:37.156Z,982.22
2018-12-09T10:11:37.141Z,982.32
2018-12-09T10:12:37.109Z,982.26
2018-12-09T10:13:37.126Z,982.27
2018-12-09T10:14:37.069Z,982.26
2018-12-09T10:15:37.791Z,982.27
2018-12-09T10:16:37.380Z,982.32
2018-12-09T10:17:37.018Z,982.34
2018-12-09T10:18:36.996Z,982.30
2018-12-09T10:19:37.181Z,982.37
2018-12-09T10:20:36.965Z,982.27
2018-12-09T10:21:37.202Z,982.30
2018-12-09T10:22:37.523Z,982.31
2018-12-09T10:23:37.200Z,982.31
2018-12-09T10:24:36.890Z,982.40
2018-12-09T10:25:36.861Z,982.40
2018-12-09T10:26:36.868Z,982.34
2018-12-09T10:27:36.841Z,982.47
2018-12-09T10:28:36.809Z,982.34
2018-12-09T10:29:36.847Z,982.35
2018-12-09T10:30:36.779Z,982.39
2018-12-09T10:31:36.749Z,982.42
2018-12-09T10:32:36.761Z,982.39
2018-12-09T10:33:36.893Z,982.42
2018-12-09T10:34:38.959Z,982.42
2018-12-09T10:35:36.707Z,982.32
2018-12-09T10:36:36.662Z,982.42
2018-12-09T10:37:36.642Z,982.47
2018-12-09T10:38:36.626Z,982.43
2018-12-09T10:39:36.849Z,982.50
2018-12-09T10:40:36.604Z,982.56
2018-12-09T10:41:36.564Z,982.43
2018-12-09T10:42:36.557Z,982.57
2018-12-09T10:43:36.733Z,982.53
2018-12-09T10:44:36.516Z,982.48
2018-12-09T10:45:36.495Z,982.58
2018-12-09T10:46:36.517Z,982.55
2018-12-09T10:47:36.463Z,982.59
2018-12-09T10:48:36.452Z,982.57
2018-12-09T10:49:36.426Z,982.53
2018-12-09T10:50:36.408Z,982.53
2018-12-09T10:51:36.411Z,982.58
2018-12-09T10:52:36.384Z,982.69
2018-12-09T10:53:36.350Z,982.64
2018-12-09T10:54:36.331Z,982.64
2018-12-09T10:55:36.319Z,982.72
2018-12-09T10:56:36.331Z,982.70
2018-12-09T10:57:36.323Z,982.70
2018-12-09T10:58:36.258Z,982.75
2018-12-09T10:59:36.244Z,982.74
2018-12-09T11:00:36.226Z,982.58
2018-12-09T11:01:36.232Z,982.72
2018-12-09T11:02:36.203Z,982.72
2018-12-09T11:03:36.192Z,982.70
2018-12-09T11:04:36.164Z,982.72
2018-12-09T11:05:36.135Z,982.74
2018-12-09T11:06:36.125Z,982.72
2018-12-09T11:07:36.119Z,982.59
2018-12-09T11:08:36.087Z,982.77
2018-12-09T11:09:36.132Z,982.74
2018-12-09T11:10:36.047Z,982.79
2018-12-09T11:11:36.041Z,982.86
2018-12-09T11:12:36.015Z,982.80
2018-12-09T11:13:35.991Z,982.87
2018-12-09T11:14:35.974Z,982.83
2018-12-09T11:15:36.048Z,982.87
2018-12-09T11:16:35.947Z,982.95
2018-12-09T11:17:35.931Z,982.82
2018-12-09T11:18:35.911Z,982.81
2018-12-09T11:19:35.907Z,982.86
2018-12-09T11:20:35.871Z,982.85
2018-12-09T11:21:35.993Z,982.93
2018-12-09T11:22:35.835Z,982.95
2018-12-09T11:23:35.829Z,982.94
2018-12-09T11:24:35.794Z,982.99
2018-12-09T11:25:35.790Z,982.99
2018-12-09T11:26:35.760Z,982.98
2018-12-09T11:27:35.790Z,983.04
2018-12-09T11:28:35.729Z,982.74
2018-12-09T11:29:35.721Z,982.96
2018-12-09T11:30:35.692Z,983.02
2018-12-09T11:31:35.836Z,983.03
2018-12-09T11:32:35.656Z,982.98
2018-12-09T11:33:35.634Z,982.96
2018-12-09T11:34:35.624Z,983.02
2018-12-09T11:35:35.619Z,983.04
2018-12-09T11:36:35.585Z,983.00
2018-12-09T11:37:35.671Z,983.01
2018-12-09T11:38:35.547Z,983.08
2018-12-09T11:39:35.534Z,983.10
2018-12-09T11:40:35.513Z,983.11
2018-12-09T11:41:35.510Z,983.14
2018-12-09T11:42:35.505Z,983.14
2018-12-09T11:43:35.458Z,983.23
2018-12-09T11:44:35.462Z,983.22
2018-12-09T11:45:35.422Z,983.08
2018-12-09T11:46:35.419Z,983.20
2018-12-09T11:47:35.427Z,983.29
2018-12-09T11:48:35.375Z,983.22
2018-12-09T11:49:35.355Z,983.20
2018-12-09T11:50:35.335Z,983.29
2018-12-09T11:51:35.388Z,983.20
2018-12-09T11:52:35.299Z,983.26
2018-12-09T11:53:36.653Z,983.27
2018-12-09T11:54:35.268Z,983.26
2018-12-09T11:55:35.246Z,983.34
2018-12-09T11:56:35.225Z,983.31
2018-12-09T11:57:35.285Z,983.34
2018-12-09T11:58:35.198Z,983.27
2018-12-09T11:59:35.181Z,983.32
2018-12-09T12:00:35.159Z,983.35
2018-12-09T12:01:35.154Z,983.30
2018-12-09T12:02:35.120Z,983.37
2018-12-09T12:03:35.117Z,983.25
2018-12-09T12:04:35.082Z,983.29
2018-12-09T12:05:35.073Z,983.32
2018-12-09T12:06:35.045Z,983.36
2018-12-09T12:07:35.034Z,983.35
2018-12-09T12:08:35.076Z,983.39
2018-12-09T12:09:35.007Z,983.29
2018-12-09T12:10:34.980Z,983.37
2018-12-09T12:11:34.963Z,983.38
2018-12-09T12:12:34.952Z,983.35
2018-12-09T12:13:34.933Z,983.34
2018-12-09T12:14:34.945Z,983.38
2018-12-09T12:15:34.899Z,983.41
2018-12-09T12:16:34.881Z,983.35
2018-12-09T12:17:34.856Z,983.40
2018-12-09T12:18:34.843Z,983.39
2018-12-09T12:19:34.855Z,983.45
2018-12-09T12:20:34.798Z,983.43
2018-12-09T12:21:34.778Z,983.40
2018-12-09T12:22:34.800Z,983.37
2018-12-09T12:23:34.750Z,983.45
2018-12-09T12:24:34.738Z,983.36
2018-12-09T12:25:34.707Z,983.43
2018-12-09T12:26:34.704Z,983.49
2018-12-09T12:27:34.719Z,983.47
2018-12-09T12:28:34.660Z,983.45
2018-12-09T12:29:34.644Z,983.54